Time;durP1;ratioP1;P1;durP2;ratioP2;P2;SDS_P1;SDS_P2;PMS_P1;PMS_P2;Temp;Humidity;BMP_temperature;BMP_pressure;BME280_temperature;BME280_humidity;BME280_pressure;Samples;Min_cycle;Max_cycle;Signal;HPM_P1;HPM_P2
2022/12/02 00:00:52;;;;;;;44.83;22.98;;;3.10;99.90;;;;;;4999369;28;20041;-62
2022/12/02 00:03:20;;;;;;;44.13;22.10;;;2.90;99.90;;;;;;5002380;28;20125;-62
2022/12/02 00:05:48;;;;;;;45.67;24.55;;;3.00;99.90;;;;;;5004346;28;20045;-62
2022/12/02 00:08:28;;;;;;;48.75;26.08;;;3.00;99.90;;;;;;5004712;28;20049;-62
2022/12/02 00:10:56;;;;;;;38.15;19.10;;;3.00;99.90;;;;;;5004186;28;20449;-62
2022/12/02 00:13:27;;;;;;;45.15;24.17;;;2.90;99.90;;;;;;5002618;28;20080;-62
2022/12/02 00:16:00;;;;;;;42.23;20.73;;;3.10;99.90;;;;;;5003984;28;20126;-62
2022/12/02 00:18:27;;;;;;;41.55;21.88;;;3.00;99.90;;;;;;5005643;28;20315;-61
2022/12/02 00:20:53;;;;;;;45.08;23.92;;;;;;;;;;5002976;28;20183;-62
2022/12/02 00:23:19;;;;;;;43.60;23.65;;;;;;;;;;5005076;28;20629;-61
2022/12/02 00:25:50;;;;;;;43.45;23.33;;;3.00;99.90;;;;;;5003595;28;20050;-61
2022/12/02 00:28:17;;;;;;;46.40;24.95;;;;;;;;;;5002791;28;20033;-62
2022/12/02 00:30:43;;;;;;;45.85;25.70;;;;;;;;;;5002626;28;20503;-61
2022/12/02 00:33:10;;;;;;;46.25;23.90;;;;;;;;;;5001710;28;20526;-62
2022/12/02 00:35:36;;;;;;;43.17;23.75;;;;;;;;;;5003002;28;20099;-62
2022/12/02 00:38:02;;;;;;;47.20;24.30;;;;;;;;;;5004899;28;20062;-61
2022/12/02 00:40:28;;;;;;;46.95;23.55;;;;;;;;;;5003560;28;20095;-61
2022/12/02 00:46:30;;;;;;;46.38;25.10;;;;;;;;;;5005443;28;20103;-61
2022/12/02 00:48:33;;;;;;;48.85;23.25;;;2.90;99.90;;;;;;4994864;28;20073;-62
2022/12/02 00:50:59;;;;;;;45.75;24.00;;;;;;;;;;5006576;28;20061;-62
2022/12/02 00:53:25;;;;;;;47.28;25.33;;;;;;;;;;5004990;28;20640;-62
2022/12/02 00:55:51;;;;;;;46.38;24.00;;;;;;;;;;5005634;28;20156;-61
2022/12/02 00:58:17;;;;;;;45.47;23.17;;;;;;;;;;5004093;28;20042;-62
2022/12/02 01:00:44;;;;;;;41.63;23.48;;;;;;;;;;5005800;28;20133;-61
2022/12/02 01:03:10;;;;;;;44.30;25.08;;;;;;;;;;5006396;28;20037;-62
2022/12/02 01:05:36;;;;;;;38.67;19.60;;;;;;;;;;5008263;28;20406;-62
2022/12/02 01:08:02;;;;;;;44.38;23.27;;;;;;;;;;5001930;28;20124;-62
2022/12/02 01:10:28;;;;;;;45.22;22.25;;;;;;;;;;5008389;28;20045;-62
2022/12/02 01:12:54;;;;;;;44.42;25.15;;;;;;;;;;5007404;28;21032;-62
2022/12/02 01:15:21;;;;;;;44.50;24.00;;;;;;;;;;5005046;28;20049;-62
2022/12/02 01:17:47;;;;;;;45.95;24.02;;;;;;;;;;5003722;28;20455;-62
2022/12/02 01:20:13;;;;;;;46.30;24.08;;;;;;;;;;5003826;28;20140;-62
2022/12/02 01:22:39;;;;;;;45.15;22.85;;;;;;;;;;5008037;28;20041;-61
2022/12/02 01:25:05;;;;;;;43.17;22.33;;;;;;;;;;5004987;28;20507;-61
2022/12/02 01:27:31;;;;;;;41.88;21.15;;;;;;;;;;5005714;28;20046;-62
2022/12/02 01:29:57;;;;;;;43.15;21.75;;;;;;;;;;5005834;28;20088;-62
2022/12/02 01:32:23;;;;;;;41.97;22.65;;;;;;;;;;5006717;28;20037;-62
2022/12/02 01:34:50;;;;;;;41.63;20.00;;;;;;;;;;5008935;28;20038;-61
2022/12/02 01:37:16;;;;;;;45.60;24.40;;;;;;;;;;5005226;28;20038;-62
2022/12/02 01:39:42;;;;;;;44.03;22.25;;;;;;;;;;5007236;28;20048;-62
2022/12/02 01:42:08;;;;;;;46.75;24.23;;;2.90;99.90;;;;;;5006538;28;20089;-62
2022/12/02 01:44:35;;;;;;;43.63;22.90;;;;;;;;;;5003330;28;20046;-61
2022/12/02 01:47:01;;;;;;;37.95;18.58;;;;;;;;;;5009075;28;20453;-62
2022/12/02 01:49:27;;;;;;;43.40;21.92;;;;;;;;;;5005350;28;20045;-62
2022/12/02 01:51:54;;;;;;;40.30;20.67;;;;;;;;;;5005277;28;20057;-62
2022/12/02 01:54:20;;;;;;;37.72;18.67;;;;;;;;;;5004744;28;20149;-61
2022/12/02 01:56:46;;;;;;;34.60;16.23;;;;;;;;;;5005845;28;20124;-62
2022/12/02 01:59:14;;;;;;;42.17;20.30;;;2.80;99.90;;;;;;5002439;28;20041;-62
2022/12/02 02:01:40;;;;;;;38.33;19.27;;;;;;;;;;5006242;28;20153;-62
2022/12/02 02:04:07;;;;;;;37.47;19.92;;;2.80;99.90;;;;;;5008279;28;20041;-62
2022/12/02 02:06:37;;;;;;;38.78;20.27;;;2.80;99.90;;;;;;5006719;28;20041;-62
2022/12/02 02:09:03;;;;;;;35.00;18.63;;;2.80;99.90;;;;;;5006147;28;20485;-62
2022/12/02 02:11:29;;;;;;;41.63;20.50;;;;;;;;;;5004453;28;20684;-62
2022/12/02 02:13:55;;;;;;;41.40;19.33;;;;;;;;;;5007978;28;20232;-61
2022/12/02 02:16:21;;;;;;;38.13;18.90;;;;;;;;;;5000242;28;20054;-62
2022/12/02 02:18:48;;;;;;;41.90;19.85;;;;;;;;;;5004775;28;20516;-62
2022/12/02 02:21:19;;;;;;;42.60;20.00;;;2.80;99.90;;;;;;5003395;28;20066;-62
2022/12/02 02:23:45;;;;;;;38.87;19.47;;;;;;;;;;5008114;28;21010;-61
2022/12/02 02:26:11;;;;;;;39.35;19.42;;;;;;;;;;5004948;28;20042;-62
2022/12/02 02:28:38;;;;;;;38.03;19.42;;;;;;;;;;5005387;28;20413;-62
2022/12/02 02:31:04;;;;;;;37.13;17.85;;;;;;;;;;5006358;28;20056;-62
2022/12/02 02:33:32;;;;;;;40.40;17.92;;;3.00;99.90;;;;;;4998676;28;20056;-62
2022/12/02 02:35:59;;;;;;;38.38;18.25;;;2.80;99.90;;;;;;5003680;28;20045;-62
2022/12/02 02:38:26;;;;;;;48.17;19.73;;;2.60;99.90;;;;;;4995914;28;20065;-62
2022/12/02 02:40:53;;;;;;;40.70;18.58;;;;;;;;;;4999829;28;20092;-62
2022/12/02 02:43:22;;;;;;;45.53;20.73;;;2.90;99.90;;;;;;5004685;28;20136;-61
2022/12/02 02:45:48;;;;;;;43.83;22.00;;;2.70;99.90;;;;;;5005791;28;20048;-62
2022/12/02 02:48:16;;;;;;;46.65;22.58;;;4.60;99.90;;;;;;5001192;28;20053;-62
2022/12/02 02:50:44;;;;;;;40.20;18.85;;;2.70;99.90;;;;;;5003303;28;20129;-61
2022/12/02 02:53:10;;;;;;;43.80;21.77;;;;;;;;;;5003058;28;20142;-62
2022/12/02 02:55:36;;;;;;;48.95;22.95;;;;;;;;;;5000608;28;20465;-61
2022/12/02 02:58:23;;;;;;;42.63;21.33;;;2.80;99.90;;;;;;5002671;28;21017;-62
2022/12/02 03:00:58;;;;;;;41.03;20.70;;;2.70;99.90;;;;;;5002599;28;20514;-61
2022/12/02 03:03:28;;;;;;;48.08;23.73;;;2.90;99.90;;;;;;5001130;28;20041;-61
2022/12/02 03:05:55;;;;;;;46.35;22.83;;;2.70;99.90;;;;;;5001611;28;20033;-61
2022/12/02 03:08:22;;;;;;;47.45;22.30;;;2.60;99.90;;;;;;5003924;28;20037;-62
2022/12/02 03:10:48;;;;;;;48.38;22.38;;;;;;;;;;5006222;28;20042;-61
2022/12/02 03:13:14;;;;;;;45.25;22.60;;;;;;;;;;4999820;28;20050;-61
2022/12/02 03:15:41;;;;;;;46.70;23.27;;;2.70;99.90;;;;;;5001402;28;20125;-61
2022/12/02 03:18:07;;;;;;;48.70;23.45;;;;;;;;;;5000691;28;20042;-62
2022/12/02 03:20:33;;;;;;;54.05;23.15;;;;;;;;;;5002304;28;20317;-62
2022/12/02 03:23:00;;;;;;;54.15;23.58;;;2.80;99.90;;;;;;5001144;28;20538;-61
2022/12/02 03:25:26;;;;;;;47.20;22.48;;;;;;;;;;5001491;28;20077;-61
2022/12/02 03:27:52;;;;;;;50.60;23.17;;;;;;;;;;5008788;28;20072;-61
2022/12/02 03:30:18;;;;;;;47.15;24.48;;;;;;;;;;5006585;28;20033;-61
2022/12/02 03:32:44;;;;;;;51.55;23.75;;;;;;;;;;5002286;28;20044;-62
2022/12/02 03:35:10;;;;;;;53.22;22.38;;;;;;;;;;5006144;28;20533;-62
2022/12/02 03:37:36;;;;;;;44.92;22.48;;;;;;;;;;5005690;28;20388;-62
2022/12/02 03:40:03;;;;;;;53.80;24.95;;;2.70;99.90;;;;;;5004257;28;20045;-61
2022/12/02 03:42:29;;;;;;;50.58;24.23;;;;;;;;;;5002547;28;20067;-62
2022/12/02 03:44:55;;;;;;;47.47;22.58;;;;;;;;;;5002564;28;20411;-61
2022/12/02 03:47:21;;;;;;;44.90;23.15;;;;;;;;;;5009165;28;20042;-61
2022/12/02 03:49:47;;;;;;;51.03;21.73;;;;;;;;;;5002523;28;20041;-62
2022/12/02 03:52:14;;;;;;;50.67;22.67;;;;;;;;;;5003283;28;20056;-61
2022/12/02 03:54:40;;;;;;;47.92;23.20;;;;;;;;;;5003277;28;20422;-61
2022/12/02 03:57:06;;;;;;;45.13;22.75;;;;;;;;;;5006032;28;20038;-62
2022/12/02 03:59:32;;;;;;;40.45;20.85;;;;;;;;;;4998456;28;20149;-61
2022/12/02 04:01:58;;;;;;;40.47;21.77;;;;;;;;;;5000994;28;20128;-62
2022/12/02 04:04:24;;;;;;;46.75;22.48;;;;;;;;;;5005219;28;20049;-62
2022/12/02 04:06:51;;;;;;;45.63;22.08;;;;;;;;;;5004530;28;20140;-61
2022/12/02 04:09:17;;;;;;;43.20;20.65;;;;;;;;;;5003898;28;20504;-62
2022/12/02 04:11:43;;;;;;;38.17;20.27;;;;;;;;;;5005179;28;20053;-62
2022/12/02 04:14:09;;;;;;;39.97;20.45;;;;;;;;;;4996283;28;20430;-62
2022/12/02 04:16:35;;;;;;;38.30;17.65;;;;;;;;;;5001281;28;20041;-61
2022/12/02 04:19:01;;;;;;;46.83;23.13;;;;;;;;;;5004831;28;20038;-61
2022/12/02 04:21:27;;;;;;;40.65;20.33;;;;;;;;;;5009114;28;20096;-62
2022/12/02 04:23:53;;;;;;;39.47;19.25;;;;;;;;;;5006732;28;20212;-61
2022/12/02 04:26:19;;;;;;;44.35;21.95;;;;;;;;;;5005998;28;20050;-61
2022/12/02 04:28:46;;;;;;;42.22;21.25;;;;;;;;;;5008653;28;20046;-61
2022/12/02 04:31:14;;;;;;;42.22;19.40;;;;;;;;;;5007731;28;20052;-61
2022/12/02 04:33:41;;;;;;;45.30;20.85;;;;;;;;;;5005746;28;20044;-61
2022/12/02 04:36:07;;;;;;;43.95;20.92;;;2.40;99.90;;;;;;5004249;28;20403;-61
2022/12/02 04:38:33;;;;;;;40.28;20.23;;;;;;;;;;5006704;28;20061;-61
2022/12/02 04:40:59;;;;;;;41.05;20.15;;;;;;;;;;5007001;28;20038;-62
2022/12/02 04:43:25;;;;;;;45.00;22.13;;;;;;;;;;5008372;28;20048;-62
2022/12/02 04:45:51;;;;;;;46.42;19.63;;;;;;;;;;5005648;28;20037;-61
2022/12/02 04:48:17;;;;;;;44.88;20.25;;;;;;;;;;5006627;28;20088;-62
2022/12/02 04:50:43;;;;;;;47.13;22.17;;;;;;;;;;5005296;28;20049;-62
2022/12/02 04:53:09;;;;;;;51.25;23.27;;;;;;;;;;5002805;28;20478;-62
2022/12/02 04:55:35;;;;;;;45.50;21.75;;;;;;;;;;5006518;28;20128;-62
2022/12/02 04:58:01;;;;;;;45.45;19.85;;;;;;;;;;5006142;28;20125;-61
2022/12/02 05:00:27;;;;;;;46.28;22.98;;;;;;;;;;5004038;28;20185;-61
2022/12/02 05:02:54;;;;;;;49.15;21.48;;;;;;;;;;5003975;28;20069;-61
2022/12/02 05:05:20;;;;;;;52.47;24.00;;;;;;;;;;5002115;28;20073;-61
2022/12/02 05:07:46;;;;;;;51.95;23.98;;;;;;;;;;5010952;28;20053;-61
2022/12/02 05:10:12;;;;;;;49.80;23.05;;;;;;;;;;5002307;28;20103;-62
2022/12/02 05:12:39;;;;;;;52.88;23.77;;;;;;;;;;5004605;28;20046;-62
2022/12/02 05:15:05;;;;;;;49.92;22.85;;;2.40;99.90;;;;;;5004704;28;20415;-62
2022/12/02 05:17:31;;;;;;;48.45;23.15;;;;;;;;;;5008898;28;20131;-62
2022/12/02 05:19:57;;;;;;;59.67;24.40;;;;;;;;;;5007253;28;23599;-61
2022/12/02 05:22:23;;;;;;;54.45;23.23;;;;;;;;;;5006152;28;20049;-61
2022/12/02 05:24:49;;;;;;;54.05;24.38;;;;;;;;;;5005106;28;20065;-61
2022/12/02 05:27:15;;;;;;;50.53;23.92;;;;;;;;;;5003534;28;20077;-62
2022/12/02 05:29:41;;;;;;;54.90;24.67;;;;;;;;;;5005990;28;20073;-62
2022/12/02 05:32:07;;;;;;;56.38;23.08;;;;;;;;;;5005661;28;20301;-62
2022/12/02 05:34:34;;;;;;;49.42;22.70;;;;;;;;;;5004013;28;20034;-61
2022/12/02 05:37:00;;;;;;;55.83;24.00;;;;;;;;;;5004613;28;20041;-61
2022/12/02 05:39:26;;;;;;;53.70;23.33;;;;;;;;;;5004172;28;20065;-62
2022/12/02 05:41:52;;;;;;;53.17;22.80;;;;;;;;;;5004641;28;20121;-62
2022/12/02 05:44:23;;;;;;;56.50;24.73;;;2.50;99.90;;;;;;5002763;28;20050;-62
2022/12/02 05:46:49;;;;;;;48.92;23.38;;;;;;;;;;5000349;28;20160;-62
2022/12/02 05:49:20;;;;;;;50.38;23.05;;;2.40;99.90;;;;;;5010273;28;20180;-62
2022/12/02 05:52:00;;;;;;;57.05;25.15;;;2.30;99.90;;;;;;5006810;28;20057;-62
2022/12/02 05:54:27;;;;;;;55.47;25.38;;;2.30;99.90;;;;;;5006138;28;20065;-62
2022/12/02 05:56:55;;;;;;;54.60;25.23;;;2.30;99.90;;;;;;5003884;28;20112;-62
2022/12/02 05:59:22;;;;;;;51.85;21.52;;;2.40;99.90;;;;;;5006720;28;20080;-61
2022/12/02 06:01:53;;;;;;;51.75;23.80;;;2.30;99.90;;;;;;5005108;28;20144;-62
2022/12/02 06:04:31;;;;;;;55.33;23.73;;;2.30;99.90;;;;;;5008672;28;20128;-61
2022/12/02 06:07:08;;;;;;;53.17;24.30;;;2.20;99.90;;;;;;5005289;28;20798;-62
2022/12/02 06:09:34;;;;;;;54.00;23.80;;;;;;;;;;5003792;28;20045;-61
2022/12/02 06:12:00;;;;;;;55.80;24.67;;;;;;;;;;5004533;28;20053;-62
2022/12/02 06:14:31;;;;;;;57.00;25.05;;;2.20;99.90;;;;;;5004264;28;20054;-62
2022/12/02 06:17:00;;;;;;;50.10;23.83;;;2.30;99.90;;;;;;5004373;28;20038;-62
2022/12/02 06:19:55;;;;;;;59.40;25.80;;;2.40;99.90;;;;;;5004815;28;20149;-62
2022/12/02 06:22:28;;;;;;;53.95;22.52;;;2.30;99.90;;;;;;5004281;28;20049;-62
2022/12/02 06:25:00;;;;;;;55.08;23.13;;;2.40;99.90;;;;;;5005422;28;20041;-62
2022/12/02 06:27:27;;;;;;;55.35;25.42;;;2.40;99.90;;;;;;5000926;28;20093;-62
2022/12/02 06:29:58;;;;;;;60.35;23.25;;;2.30;99.90;;;;;;5006738;28;20044;-61
2022/12/02 06:32:36;;;;;;;58.03;24.88;;;2.30;99.90;;;;;;5005856;28;20080;-62
2022/12/02 06:35:15;;;;;;;56.28;25.77;;;2.30;99.90;;;;;;5003038;28;20041;-61
2022/12/02 06:37:42;;;;;;;55.17;23.80;;;2.20;99.90;;;;;;5006786;28;20151;-62
2022/12/02 06:40:22;;;;;;;62.17;26.50;;;2.30;99.90;;;;;;5003634;28;20124;-62
2022/12/02 06:42:49;;;;;;;62.17;25.52;;;;;;;;;;5006605;28;20072;-62
2022/12/02 06:45:32;;;;;;;60.47;26.92;;;3.80;99.90;;;;;;5001604;28;20049;-62
2022/12/02 06:48:27;;;;;;;59.75;26.00;;;2.20;99.90;;;;;;5000531;28;20042;-61
2022/12/02 06:50:56;;;;;;;64.40;25.67;;;2.40;99.90;;;;;;5002958;28;20502;-61
2022/12/02 06:53:27;;;;;;;62.35;26.60;;;2.30;99.90;;;;;;5000660;28;20515;-62
2022/12/02 06:56:28;;;;;;;66.82;26.50;;;2.30;99.90;;;;;;5003812;28;20387;-61
2022/12/02 06:59:05;;;;;;;57.22;23.08;;;2.10;99.90;;;;;;5007058;28;20045;-62
2022/12/02 07:01:42;;;;;;;71.18;26.65;;;2.20;99.90;;;;;;5003187;28;20110;-61
2022/12/02 07:04:08;;;;;;;68.93;26.23;;;;;;;;;;5004885;28;20144;-62
2022/12/02 07:06:39;;;;;;;67.60;26.80;;;2.20;99.90;;;;;;5004081;28;20052;-61
2022/12/02 07:09:34;;;;;;;66.32;26.63;;;2.30;99.90;;;;;;5003030;28;20455;-62
2022/12/02 07:12:00;;;;;;;65.70;26.10;;;;;;;;;;4983914;28;20192;-62
2022/12/02 07:14:26;;;;;;;70.90;25.77;;;;;;;;;;5000366;28;20042;-61
2022/12/02 07:16:54;;;;;;;59.53;25.00;;;2.10;99.90;;;;;;5003840;28;20129;-61
2022/12/02 07:19:25;;;;;;;73.60;27.88;;;2.40;99.90;;;;;;5005445;28;20049;-62
2022/12/02 07:21:51;;;;;;;68.38;28.23;;;;;;;;;;5004915;28;20116;-62
2022/12/02 07:24:19;;;;;;;74.68;29.00;;;2.30;99.90;;;;;;5004329;28;20395;-62
2022/12/02 07:26:46;;;;;;;63.25;26.27;;;2.30;99.90;;;;;;5007163;28;20061;-61
2022/12/02 07:29:28;;;;;;;67.32;26.30;;;2.30;99.90;;;;;;5001833;28;20052;-61
2022/12/02 07:31:54;;;;;;;65.38;23.50;;;;;;;;;;5003884;28;20676;-57
2022/12/02 07:34:20;;;;;;;63.50;23.75;;;;;;;;;;5002393;28;20042;-57
2022/12/02 07:36:46;;;;;;;65.20;27.92;;;;;;;;;;5005923;28;20403;-57
2022/12/02 07:39:12;;;;;;;69.28;29.67;;;;;;;;;;5006220;28;20720;-58
2022/12/02 07:41:38;;;;;;;60.33;26.67;;;;;;;;;;5002892;28;20218;-58
2022/12/02 07:44:05;;;;;;;58.53;24.55;;;;;;;;;;5004676;28;20437;-58
2022/12/02 07:46:31;;;;;;;61.03;26.80;;;;;;;;;;5002427;28;20048;-58
2022/12/02 07:48:57;;;;;;;64.10;24.17;;;;;;;;;;5003195;28;20045;-58
2022/12/02 07:51:23;;;;;;;68.75;27.88;;;;;;;;;;5004161;28;20062;-58
2022/12/02 07:53:49;;;;;;;76.65;23.48;;;;;;;;;;5002203;28;20050;-58
2022/12/02 07:56:16;;;;;;;72.45;25.20;;;;;;;;;;5006262;28;20402;-58
2022/12/02 07:58:42;;;;;;;50.60;21.90;;;;;;;;;;5005793;28;20159;-58
2022/12/02 08:01:08;;;;;;;54.85;23.00;;;;;;;;;;5004468;28;20388;-58
2022/12/02 08:03:34;;;;;;;51.88;23.90;;;;;;;;;;5000490;28;20107;-58
2022/12/02 08:06:00;;;;;;;45.80;19.90;;;;;;;;;;5006472;28;20395;-57
2022/12/02 08:08:26;;;;;;;51.60;24.52;;;;;;;;;;5003672;28;20116;-58
2022/12/02 08:10:52;;;;;;;38.60;18.50;;;;;;;;;;4996460;28;20069;-58
2022/12/02 08:13:18;;;;;;;38.03;16.95;;;;;;;;;;5003690;28;20049;-58
2022/12/02 08:15:44;;;;;;;48.28;22.48;;;;;;;;;;5002869;28;20060;-58
2022/12/02 08:18:11;;;;;;;47.35;20.85;;;;;;;;;;5004086;28;20057;-58
2022/12/02 08:20:37;;;;;;;47.80;23.38;;;;;;;;;;5002148;28;20052;-58
2022/12/02 08:23:04;;;;;;;45.65;20.85;;;;;;;;;;5000959;28;20038;-58
2022/12/02 08:25:30;;;;;;;52.50;23.10;;;;;;;;;;5004305;28;20045;-57
2022/12/02 08:27:56;;;;;;;57.47;25.85;;;;;;;;;;5004570;28;20478;-58
2022/12/02 08:30:22;;;;;;;53.33;26.08;;;;;;;;;;5001757;28;20375;-58
2022/12/02 08:32:48;;;;;;;50.40;22.35;;;;;;;;;;5002011;28;20371;-57
2022/12/02 08:35:14;;;;;;;52.15;25.38;;;;;;;;;;5003268;28;20071;-58
2022/12/02 08:37:40;;;;;;;45.90;20.05;;;;;;;;;;4998605;28;20746;-57
2022/12/02 08:40:07;;;;;;;57.53;24.20;;;2.80;99.90;;;;;;4998377;28;20038;-58
2022/12/02 08:42:33;;;;;;;46.25;21.63;;;;;;;;;;5015755;28;20491;-57
2022/12/02 08:44:59;;;;;;;47.70;22.30;;;;;;;;;;5001392;28;20045;-58
2022/12/02 08:47:25;;;;;;;42.10;20.52;;;;;;;;;;5000938;28;20046;-58
2022/12/02 08:49:51;;;;;;;44.25;20.42;;;;;;;;;;5000979;28;20148;-57
2022/12/02 08:52:17;;;;;;;44.03;20.38;;;;;;;;;;5002818;28;20248;-58
2022/12/02 08:54:44;;;;;;;40.65;18.48;;;;;;;;;;5001485;28;20481;-58
2022/12/02 08:57:11;;;;;;;50.05;21.25;;;;;;;;;;4998929;28;20369;-57
2022/12/02 08:59:37;;;;;;;48.20;20.95;;;;;;;;;;4999235;28;20064;-58
2022/12/02 09:02:03;;;;;;;42.60;19.10;;;;;;;;;;5002408;28;20079;-57
2022/12/02 09:04:41;;;;;;;49.78;20.77;;;;;;;;;;5004719;28;20042;-57
2022/12/02 09:07:07;;;;;;;43.72;18.65;;;;;;;;;;5009485;28;20049;-58
2022/12/02 09:09:33;;;;;;;52.17;23.10;;;;;;;;;;5005025;28;20043;-58
2022/12/02 09:11:59;;;;;;;57.58;23.15;;;;;;;;;;5006250;28;20954;-58
2022/12/02 09:14:25;;;;;;;51.60;23.20;;;;;;;;;;5007134;28;20046;-58
2022/12/02 09:16:51;;;;;;;53.38;22.63;;;;;;;;;;5004789;28;20053;-58
2022/12/02 09:19:17;;;;;;;48.55;20.52;;;;;;;;;;5005372;28;20049;-58
2022/12/02 09:21:44;;;;;;;49.65;19.85;;;;;;;;;;5005377;28;20038;-57
2022/12/02 09:24:10;;;;;;;55.13;23.35;;;;;;;;;;5007126;28;22030;-58
2022/12/02 09:26:36;;;;;;;59.83;22.60;;;;;;;;;;5010229;28;20062;-58
2022/12/02 09:29:02;;;;;;;54.47;23.33;;;;;;;;;;5006510;28;20053;-58
2022/12/02 09:31:28;;;;;;;60.88;22.98;;;;;;;;;;5005719;28;20411;-57
2022/12/02 09:33:54;;;;;;;52.75;21.83;;;;;;;;;;5004784;28;20038;-57
2022/12/02 09:36:20;;;;;;;45.10;17.67;;;;;;;;;;5008281;28;20045;-58
2022/12/02 09:38:46;;;;;;;47.88;22.38;;;;;;;;;;5009746;28;20406;-58
2022/12/02 09:41:12;;;;;;;47.10;19.90;;;;;;;;;;5007978;28;20135;-58
2022/12/02 09:43:39;;;;;;;40.00;16.60;;;;;;;;;;5008399;28;20556;-58
2022/12/02 09:46:05;;;;;;;43.15;18.65;;;;;;;;;;5003117;28;20129;-58
2022/12/02 09:48:31;;;;;;;45.45;20.77;;;;;;;;;;5005970;28;20203;-58
2022/12/02 09:50:58;;;;;;;44.70;18.95;;;2.20;99.90;;;;;;5006431;28;20302;-58
2022/12/02 09:53:32;;;;;;;46.80;20.00;;;2.20;99.90;;;;;;5004559;28;20381;-58
2022/12/02 09:55:58;;;;;;;48.88;21.65;;;;;;;;;;5007053;28;20045;-58
2022/12/02 09:58:26;;;;;;;45.85;19.33;;;2.10;99.90;;;;;;5001708;28;20091;-57
2022/12/02 10:00:52;;;;;;;50.88;21.33;;;;;;;;;;5006742;28;20444;-58
2022/12/02 10:03:22;;;;;;;57.60;21.10;;;2.30;99.90;;;;;;4998679;28;20285;-58
2022/12/02 10:05:48;;;;;;;48.50;21.17;;;2.30;99.90;;;;;;5001890;28;20046;-57
2022/12/02 10:08:19;;;;;;;54.20;21.48;;;2.30;99.90;;;;;;5004239;28;20111;-58
2022/12/02 10:10:45;;;;;;;49.40;21.70;;;;;;;;;;4998307;28;20061;-58
2022/12/02 10:13:16;;;;;;;52.80;22.08;;;2.20;99.90;;;;;;4999910;28;20069;-58
2022/12/02 10:15:43;;;;;;;59.22;24.08;;;2.10;99.90;;;;;;4999966;28;20041;-58
2022/12/02 10:18:17;;;;;;;59.05;22.60;;;2.30;99.90;;;;;;5002438;28;20798;-57
2022/12/02 10:20:43;;;;;;;64.13;24.92;;;;;;;;;;5005624;28;20037;-58
2022/12/02 10:23:15;;;;;;;46.42;16.50;;;2.70;99.90;;;;;;5005624;28;20037;-57
2022/12/02 10:25:46;;;;;;;54.97;22.98;;;2.50;99.90;;;;;;5006695;28;20690;-58
2022/12/02 10:28:23;;;;;;;52.63;22.10;;;2.70;99.90;;;;;;5005269;28;20081;-58
2022/12/02 10:30:51;;;;;;;45.25;21.27;;;2.70;99.90;;;;;;5007592;28;20135;-58
2022/12/02 10:33:17;;;;;;;45.30;17.45;;;;;;;;;;5000788;28;20053;-58
2022/12/02 10:35:48;;;;;;;45.45;20.20;;;2.60;99.90;;;;;;5000124;28;20419;-58
2022/12/02 10:38:43;;;;;;;39.33;17.92;;;2.70;99.90;;;;;;4997774;28;20110;-58
2022/12/02 10:41:23;;;;;;;42.47;15.98;;;2.50;99.90;;;;;;5001708;28;20402;-57
2022/12/02 10:43:52;;;;;;;41.33;16.77;;;2.50;99.90;;;;;;4994734;28;20576;-57
2022/12/02 10:46:19;;;;;;;39.97;16.92;;;2.50;99.90;;;;;;5005171;28;20056;-58
2022/12/02 10:48:45;;;;;;;46.70;21.27;;;;;;;;;;5006608;28;20660;-58
2022/12/02 10:51:15;;;;;;;41.28;18.38;;;2.60;99.90;;;;;;4997282;28;20125;-57
2022/12/02 10:53:42;;;;;;;28.48;12.85;;;2.50;99.90;;;;;;5002280;28;20048;-58
2022/12/02 10:56:18;;;;;;;45.22;20.45;;;2.40;99.90;;;;;;5004166;28;20518;-58
2022/12/02 10:58:44;;;;;;;45.72;18.30;;;;;;;;;;5001864;28;20041;-57
2022/12/02 11:01:11;;;;;;;45.47;20.88;;;2.50;99.90;;;;;;5005797;28;20053;-58
2022/12/02 11:03:38;;;;;;;35.03;16.45;;;2.50;99.90;;;;;;4993832;28;20042;-58
2022/12/02 11:06:11;;;;;;;43.90;20.98;;;2.60;99.90;;;;;;5004739;28;20102;-58
2022/12/02 11:08:40;;;;;;;49.25;23.40;;;;;;;;;;4997603;28;20190;-57
2022/12/02 11:11:15;;;;;;;42.10;21.45;;;2.50;99.90;;;;;;4998286;28;20125;-58
2022/12/02 11:13:49;;;;;;;42.58;20.80;;;2.40;99.90;;;;;;5004319;28;20096;-58
2022/12/02 11:16:27;;;;;;;44.22;22.23;;;2.30;99.90;;;;;;5000125;28;20132;-58
2022/12/02 11:19:10;;;;;;;44.03;22.05;;;2.60;99.90;;;;;;5003052;28;20132;-58
2022/12/02 11:21:44;;;;;;;39.83;18.05;;;2.50;99.90;;;;;;5005673;28;20072;-57
2022/12/02 11:24:22;;;;;;;42.00;21.33;;;2.70;99.90;;;;;;5001923;28;20045;-58
2022/12/02 11:27:00;;;;;;;43.80;22.67;;;2.60;99.90;;;;;;5007921;28;20059;-58
2022/12/02 11:29:39;;;;;;;33.55;16.00;;;2.50;99.90;;;;;;5010932;28;20056;-58
2022/12/02 11:32:23;;;;;;;45.28;24.20;;;2.60;99.90;;;;;;5001580;28;20046;-58
2022/12/02 11:34:49;;;;;;;43.83;21.77;;;;;;;;;;5001003;28;20146;-57
2022/12/02 11:37:35;;;;;;;42.70;22.65;;;2.60;99.90;;;;;;5004054;28;20418;-57
2022/12/02 11:40:01;;;;;;;42.63;22.25;;;;;;;;;;5005971;28;20050;-58
2022/12/02 11:42:29;;;;;;;43.38;23.10;;;2.70;99.90;;;;;;5002031;28;20080;-58
2022/12/02 11:45:15;;;;;;;44.47;22.58;;;1.20;99.90;;;;;;5002145;28;20037;-58
2022/12/02 11:47:44;;;;;;;47.38;23.58;;;2.70;99.90;;;;;;4997116;28;20069;-58
2022/12/02 11:50:10;;;;;;;41.90;22.42;;;;;;;;;;4996095;28;21098;-56
2022/12/02 11:52:39;;;;;;;39.83;18.55;;;2.60;99.90;;;;;;5002772;28;20104;-58
2022/12/02 11:55:13;;;;;;;39.17;19.98;;;2.70;99.90;;;;;;5002951;28;20049;-58
2022/12/02 11:57:51;;;;;;;49.92;23.13;;;2.80;99.90;;;;;;5000671;28;20073;-58
2022/12/02 12:00:31;;;;;;;48.90;27.17;;;2.70;99.90;;;;;;5002626;28;20132;-58
2022/12/02 12:03:11;;;;;;;47.88;25.13;;;2.90;99.90;;;;;;5002343;28;20045;-58
2022/12/02 12:05:39;;;;;;;50.42;27.73;;;2.80;99.90;;;;;;5003237;28;20038;-57
2022/12/02 12:08:05;;;;;;;46.72;26.95;;;;;;;;;;5001617;28;20057;-58
2022/12/02 12:10:31;;;;;;;42.63;23.45;;;;;;;;;;5002672;28;20042;-58
2022/12/02 12:13:15;;;;;;;50.33;29.08;;;2.90;99.90;;;;;;4999844;28;20048;-58
2022/12/02 12:15:48;;;;;;;40.75;22.02;;;2.90;99.90;;;;;;5003575;28;20076;-58
2022/12/02 12:18:40;;;;;;;45.25;25.98;;;2.80;99.90;;;;;;5002542;28;20048;-58
2022/12/02 12:21:07;;;;;;;48.10;28.02;;;2.70;99.90;;;;;;5001438;28;20053;-58
2022/12/02 12:23:38;;;;;;;48.83;27.42;;;2.80;99.90;;;;;;5003809;28;20049;-58
2022/12/02 12:26:06;;;;;;;45.33;23.65;;;2.90;99.90;;;;;;5004236;28;20038;-58
2022/12/02 12:28:35;;;;;;;48.10;27.50;;;2.60;99.90;;;;;;5000591;28;20033;-58
2022/12/02 12:31:03;;;;;;;41.40;22.70;;;2.80;99.90;;;;;;5003456;28;20065;-58
2022/12/02 12:33:30;;;;;;;50.05;29.85;;;;;;;;;;5002491;28;20080;-58
2022/12/02 12:35:57;;;;;;;45.72;27.08;;;2.80;99.90;;;;;;4997551;28;20064;-58
2022/12/02 12:38:25;;;;;;;48.55;29.25;;;2.80;99.90;;;;;;4999807;28;20640;-58
2022/12/02 12:40:51;;;;;;;46.85;27.60;;;;;;;;;;5003192;28;20596;-58
2022/12/02 12:43:17;;;;;;;37.45;19.38;;;;;;;;;;5004103;28;20375;-57
2022/12/02 12:45:43;;;;;;;40.42;24.95;;;;;;;;;;5006193;28;20548;-58
2022/12/02 12:48:09;;;;;;;39.58;24.52;;;;;;;;;;5005889;28;21274;-58
2022/12/02 12:50:35;;;;;;;33.50;18.27;;;;;;;;;;5007807;28;20196;-58
2022/12/02 12:53:01;;;;;;;41.90;24.95;;;;;;;;;;5004416;28;20073;-58
2022/12/02 12:55:27;;;;;;;42.47;25.30;;;;;;;;;;5004923;28;20059;-58
2022/12/02 12:57:53;;;;;;;40.25;20.70;;;;;;;;;;5007844;28;20053;-58
2022/12/02 13:00:20;;;;;;;38.25;21.38;;;;;;;;;;5003756;28;20041;-58
2022/12/02 13:02:46;;;;;;;39.83;21.85;;;;;;;;;;5002857;28;20048;-58
2022/12/02 13:05:12;;;;;;;32.72;17.33;;;;;;;;;;5006565;28;20461;-58
2022/12/02 13:07:38;;;;;;;35.75;18.27;;;;;;;;;;5007395;28;20671;-58
2022/12/02 13:10:04;;;;;;;41.13;23.77;;;2.60;99.90;;;;;;5008715;28;20719;-58
2022/12/02 13:12:30;;;;;;;40.50;23.77;;;;;;;;;;5002760;28;20050;-58
2022/12/02 13:14:56;;;;;;;36.45;21.38;;;;;;;;;;5009513;28;20048;-59
2022/12/02 13:17:22;;;;;;;36.58;22.10;;;;;;;;;;5000618;28;20033;-58
2022/12/02 13:19:48;;;;;;;40.83;22.52;;;;;;;;;;5001696;28;20462;-58
2022/12/02 13:22:14;;;;;;;34.40;19.17;;;;;;;;;;5000730;28;20070;-58
2022/12/02 13:24:41;;;;;;;37.50;21.75;;;;;;;;;;4997976;28;20042;-58
2022/12/02 13:27:07;;;;;;;36.17;20.25;;;;;;;;;;5001646;28;21536;-58
2022/12/02 13:29:33;;;;;;;38.08;20.55;;;;;;;;;;5003997;28;20612;-58
2022/12/02 13:31:59;;;;;;;31.55;17.63;;;;;;;;;;5004164;28;20550;-58
2022/12/02 13:34:25;;;;;;;42.72;21.88;;;;;;;;;;5007085;28;20040;-58
2022/12/02 13:36:51;;;;;;;40.08;23.95;;;;;;;;;;4999925;28;20576;-58
2022/12/02 13:39:17;;;;;;;33.88;16.33;;;;;;;;;;5001336;28;20465;-58
2022/12/02 13:41:43;;;;;;;31.45;17.67;;;;;;;;;;5001772;28;20560;-58
2022/12/02 13:44:09;;;;;;;41.25;24.30;;;;;;;;;;5005513;28;20072;-58
2022/12/02 13:46:35;;;;;;;38.38;22.05;;;;;;;;;;5002627;28;20037;-58